Time;durP1;ratioP1;P1;durP2;ratioP2;P2;SDS_P1;SDS_P2;PMS_P1;PMS_P2;Temp;Humidity;BMP_temperature;BMP_pressure;BME280_temperature;BME280_humidity;BME280_pressure;Samples;Min_cycle;Max_cycle;Signal;HPM_P1;HPM_P2
2023/10/20 00:01:24;;;;;;;11.07;8.45;;;15.00;99.90;;;;;;5034020;28;20222;-83
2023/10/20 00:03:52;;;;;;;10.45;9.20;;;15.00;99.90;;;;;;5056899;28;20679;-83
2023/10/20 00:06:20;;;;;;;8.57;7.68;;;15.00;99.90;;;;;;5034800;28;20203;-83
2023/10/20 00:08:48;;;;;;;9.07;8.18;;;15.00;99.90;;;;;;5035073;28;20222;-83
2023/10/20 00:11:17;;;;;;;11.02;8.07;;;15.00;99.90;;;;;;5033112;28;20203;-83
2023/10/20 00:13:45;;;;;;;9.65;7.93;;;15.00;99.90;;;;;;5037833;28;20199;-83
2023/10/20 00:16:12;;;;;;;10.15;8.13;;;15.00;99.90;;;;;;5054884;28;20209;-83
2023/10/20 00:18:40;;;;;;;10.52;8.18;;;15.00;99.90;;;;;;5033086;28;20680;-83
2023/10/20 00:21:08;;;;;;;9.70;8.50;;;15.00;99.90;;;;;;5054049;28;20660;-83
2023/10/20 00:23:36;;;;;;;9.38;8.02;;;15.00;99.90;;;;;;5030519;28;20204;-83
2023/10/20 00:26:03;;;;;;;9.70;8.68;;;15.00;99.90;;;;;;5037081;28;20206;-83
2023/10/20 00:28:32;;;;;;;10.02;8.13;;;14.90;99.90;;;;;;5047071;28;20221;-82
2023/10/20 00:31:00;;;;;;;9.05;8.13;;;14.90;99.90;;;;;;5030422;28;20191;-83
2023/10/20 00:33:27;;;;;;;10.20;7.60;;;14.90;99.90;;;;;;5036598;28;20202;-83
2023/10/20 00:35:55;;;;;;;10.68;8.73;;;14.80;99.90;;;;;;5037613;28;20194;-83
2023/10/20 00:38:22;;;;;;;8.70;7.80;;;14.80;99.90;;;;;;5035734;28;20229;-83
2023/10/20 00:40:50;;;;;;;9.05;7.82;;;14.80;99.90;;;;;;5029780;28;20202;-83
2023/10/20 00:43:18;;;;;;;9.25;7.88;;;14.80;99.90;;;;;;5042771;28;20221;-83
2023/10/20 00:45:48;;;;;;;8.75;7.93;;;14.90;99.90;;;;;;5053605;28;20198;-83
2023/10/20 00:48:16;;;;;;;10.63;9.13;;;14.90;99.90;;;;;;5026376;28;20218;-83
2023/10/20 00:50:45;;;;;;;10.45;8.32;;;14.90;99.90;;;;;;5048105;28;20580;-83
2023/10/20 00:53:13;;;;;;;11.10;8.10;;;14.90;99.90;;;;;;5036742;28;20202;-83
2023/10/20 00:55:41;;;;;;;10.40;8.85;;;14.90;99.90;;;;;;5041074;28;20202;-83
2023/10/20 00:58:09;;;;;;;9.05;8.15;;;14.90;99.90;;;;;;5044005;28;20562;-83
2023/10/20 01:00:36;;;;;;;10.02;8.00;;;14.90;99.90;;;;;;5060404;28;20554;-83
2023/10/20 01:03:05;;;;;;;10.40;8.05;;;14.80;99.90;;;;;;5060222;28;20206;-83
2023/10/20 01:05:33;;;;;;;8.27;7.32;;;14.90;99.90;;;;;;5056697;28;20202;-83
2023/10/20 01:08:00;;;;;;;9.43;8.13;;;14.90;99.90;;;;;;5053370;28;20202;-83
2023/10/20 01:10:28;;;;;;;12.30;8.95;;;14.90;99.90;;;;;;5044035;28;20404;-83
2023/10/20 01:12:55;;;;;;;10.20;8.50;;;14.80;99.90;;;;;;5051250;28;20194;-83
2023/10/20 01:15:23;;;;;;;9.73;8.82;;;14.80;99.90;;;;;;5033129;28;20668;-83
2023/10/20 01:17:51;;;;;;;10.55;9.18;;;14.80;99.90;;;;;;5032891;28;20209;-84
2023/10/20 01:20:20;;;;;;;14.05;9.15;;;14.80;99.90;;;;;;5050304;28;20221;-82
2023/10/20 01:22:47;;;;;;;9.70;8.70;;;14.80;99.90;;;;;;5048925;28;20205;-83
2023/10/20 01:25:16;;;;;;;11.15;8.55;;;14.90;99.90;;;;;;5050903;28;20602;-83
2023/10/20 01:27:44;;;;;;;10.73;8.90;;;14.80;99.90;;;;;;5033181;28;20198;-83
2023/10/20 01:30:12;;;;;;;11.30;9.30;;;14.70;99.90;;;;;;5048331;28;20222;-83
2023/10/20 01:32:41;;;;;;;13.45;9.60;;;14.80;99.90;;;;;;5018978;28;20194;-83
2023/10/20 01:35:09;;;;;;;9.45;8.27;;;14.80;99.90;;;;;;5040695;28;20199;-83
2023/10/20 01:37:37;;;;;;;10.98;8.60;;;14.80;99.90;;;;;;5033030;28;20205;-83
2023/10/20 01:40:07;;;;;;;10.45;9.13;;;14.70;99.90;;;;;;5032503;28;20245;-83
2023/10/20 01:42:36;;;;;;;11.00;9.90;;;14.70;99.90;;;;;;5049657;28;20201;-83
2023/10/20 01:45:04;;;;;;;10.68;9.57;;;14.70;99.90;;;;;;5033342;28;20207;-83
2023/10/20 01:47:32;;;;;;;11.98;9.23;;;14.70;99.90;;;;;;5026086;28;20574;-83
2023/10/20 01:50:01;;;;;;;12.32;9.75;;;14.80;99.90;;;;;;5030370;28;20223;-83
2023/10/20 01:52:29;;;;;;;12.63;10.70;;;14.80;99.90;;;;;;5048901;28;20205;-83
2023/10/20 01:54:58;;;;;;;12.73;10.05;;;14.80;99.90;;;;;;5048531;28;20195;-83
2023/10/20 01:57:29;;;;;;;10.43;9.30;;;14.80;99.90;;;;;;5042009;28;20198;-83
2023/10/20 01:59:59;;;;;;;11.98;10.50;;;14.80;99.90;;;;;;5032540;28;20219;-83
2023/10/20 02:02:27;;;;;;;13.18;10.55;;;14.90;99.90;;;;;;5049478;28;20198;-83
2023/10/20 02:04:54;;;;;;;13.50;10.35;;;14.90;99.90;;;;;;5029237;28;20195;-83
2023/10/20 02:07:22;;;;;;;13.20;10.90;;;14.80;99.90;;;;;;5048705;28;20203;-83
2023/10/20 02:09:50;;;;;;;11.82;10.38;;;14.80;99.90;;;;;;5047055;28;20241;-83
2023/10/20 02:12:18;;;;;;;11.90;9.85;;;14.80;99.90;;;;;;5039980;28;20556;-82
2023/10/20 02:14:45;;;;;;;14.20;11.10;;;14.80;99.90;;;;;;5025805;28;20195;-82
2023/10/20 02:17:14;;;;;;;13.32;11.35;;;14.70;99.90;;;;;;5048690;28;20214;-82
2023/10/20 02:19:42;;;;;;;12.23;10.88;;;14.70;99.90;;;;;;5032671;28;20210;-82
2023/10/20 02:22:09;;;;;;;12.23;10.95;;;14.80;99.90;;;;;;5040099;28;20203;-82
2023/10/20 02:24:37;;;;;;;11.85;10.65;;;14.80;99.90;;;;;;5035732;28;20202;-82
2023/10/20 02:27:05;;;;;;;10.88;9.75;;;14.80;99.90;;;;;;5029724;28;20672;-82
2023/10/20 02:29:33;;;;;;;12.20;10.75;;;14.80;99.90;;;;;;5037919;28;20222;-82
2023/10/20 02:32:00;;;;;;;13.07;10.85;;;14.80;99.90;;;;;;5053931;28;20203;-82
2023/10/20 02:34:29;;;;;;;12.40;10.60;;;14.80;99.90;;;;;;5054531;28;20201;-82
2023/10/20 02:36:59;;;;;;;11.90;10.70;;;14.90;99.90;;;;;;5043701;28;20191;-82
2023/10/20 02:39:27;;;;;;;12.15;10.38;;;14.80;99.90;;;;;;5046316;28;20242;-82
2023/10/20 02:41:54;;;;;;;12.23;10.88;;;14.80;99.90;;;;;;5052938;28;20217;-82
2023/10/20 02:44:27;;;;;;;13.93;11.77;;;14.90;99.90;;;;;;5037453;28;20548;-82
2023/10/20 02:46:54;;;;;;;11.65;10.32;;;14.90;99.90;;;;;;5033606;28;20206;-82
2023/10/20 02:49:22;;;;;;;13.25;10.98;;;14.90;99.90;;;;;;5051876;28;20237;-82
2023/10/20 02:51:51;;;;;;;12.18;10.88;;;14.90;99.90;;;;;;5037303;28;20706;-82
2023/10/20 02:54:18;;;;;;;13.88;11.15;;;14.90;99.90;;;;;;5053342;28;20557;-82
2023/10/20 02:56:47;;;;;;;12.98;10.68;;;14.90;99.90;;;;;;5024178;28;20564;-82
2023/10/20 02:59:14;;;;;;;12.00;10.40;;;14.90;99.90;;;;;;5051243;28;20210;-82
2023/10/20 03:01:42;;;;;;;14.63;11.48;;;14.90;99.90;;;;;;5032714;28;20203;-82
2023/10/20 03:04:10;;;;;;;11.50;10.30;;;14.90;99.90;;;;;;5040796;28;20685;-82
2023/10/20 03:06:38;;;;;;;12.05;10.77;;;14.80;99.90;;;;;;5045554;28;20205;-82
2023/10/20 03:09:07;;;;;;;11.88;10.45;;;14.90;99.90;;;;;;5034484;28;20233;-82
2023/10/20 03:11:34;;;;;;;12.00;10.63;;;14.90;99.90;;;;;;5038177;28;20218;-82
2023/10/20 03:14:02;;;;;;;12.75;10.10;;;14.90;99.90;;;;;;5050027;28;20550;-82
2023/10/20 03:16:29;;;;;;;11.15;9.90;;;14.90;99.90;;;;;;5031585;28;20213;-82
2023/10/20 03:18:57;;;;;;;12.15;10.68;;;14.90;99.90;;;;;;5055544;22;20229;-79
2023/10/20 03:21:24;;;;;;;12.93;11.10;;;14.80;99.90;;;;;;5029549;28;20196;-79
2023/10/20 03:23:51;;;;;;;14.40;11.73;;;14.80;99.90;;;;;;5016773;28;20203;-79
2023/10/20 03:26:20;;;;;;;12.63;10.80;;;14.80;99.90;;;;;;5007461;28;20210;-79
2023/10/20 03:28:48;;;;;;;11.70;10.57;;;14.80;99.90;;;;;;5011681;28;20223;-79
2023/10/20 03:31:16;;;;;;;12.77;10.95;;;14.80;99.90;;;;;;5023584;28;20592;-79
2023/10/20 03:33:43;;;;;;;14.75;11.93;;;14.80;99.90;;;;;;5017617;28;20210;-79
2023/10/20 03:36:12;;;;;;;12.18;10.88;;;14.80;99.90;;;;;;5011554;28;20199;-79
2023/10/20 03:38:42;;;;;;;13.98;11.38;;;14.80;99.90;;;;;;5013207;28;20211;-79
2023/10/20 03:41:11;;;;;;;13.27;11.82;;;14.80;99.90;;;;;;5014216;28;20211;-79
2023/10/20 03:43:40;;;;;;;12.50;11.05;;;14.80;99.90;;;;;;5011809;28;20202;-79
2023/10/20 03:46:07;;;;;;;13.48;11.40;;;14.80;99.90;;;;;;5011835;28;20202;-79
2023/10/20 03:48:37;;;;;;;13.88;11.73;;;14.80;99.90;;;;;;5014302;28;20219;-79
2023/10/20 03:51:10;;;;;;;14.32;11.93;;;14.80;99.90;;;;;;5008617;28;20238;-79
2023/10/20 03:53:46;;;;;;;15.88;12.55;;;14.80;99.90;;;;;;5006736;28;20203;-79
2023/10/20 03:56:14;;;;;;;15.05;12.50;;;14.80;99.90;;;;;;5010636;28;20213;-79
2023/10/20 03:58:46;;;;;;;15.52;13.85;;;14.80;99.90;;;;;;5011115;28;20227;-79
2023/10/20 04:01:13;;;;;;;16.85;14.07;;;14.80;99.90;;;;;;5010665;28;20214;-79
2023/10/20 04:03:43;;;;;;;14.77;13.18;;;14.80;99.90;;;;;;5014385;28;20208;-79
2023/10/20 04:06:11;;;;;;;18.02;14.68;;;14.80;99.90;;;;;;5010263;28;20675;-79
2023/10/20 04:08:38;;;;;;;16.52;13.98;;;14.90;99.90;;;;;;5015562;28;20230;-79
2023/10/20 04:11:06;;;;;;;17.42;14.65;;;14.80;99.90;;;;;;5026198;28;20230;-79
2023/10/20 04:13:33;;;;;;;19.33;14.82;;;14.90;99.90;;;;;;5016783;28;20199;-79
2023/10/20 04:16:14;;;;;;;16.80;15.05;;;14.90;99.90;;;;;;5016321;28;20206;-79
2023/10/20 04:18:41;;;;;;;22.55;15.95;;;14.90;99.90;;;;;;5012222;28;20234;-79
2023/10/20 04:21:08;;;;;;;19.77;15.82;;;14.90;99.90;;;;;;5006905;28;20203;-79
2023/10/20 04:23:36;;;;;;;18.38;15.27;;;14.90;99.90;;;;;;5028528;28;20195;-78
2023/10/20 04:26:15;;;;;;;20.15;15.68;;;14.90;99.90;;;;;;5014603;28;20199;-79
2023/10/20 04:28:44;;;;;;;22.13;16.85;;;14.90;99.90;;;;;;5011684;28;20230;-78
2023/10/20 04:45:20;;;;;;;19.85;15.45;;;14.90;99.90;;;;;;5017962;28;20672;-78
2023/10/20 04:50:59;;;;;;;19.67;15.90;;;14.90;99.90;;;;;;5011256;28;20203;-79
2023/10/20 04:53:48;;;;;;;20.42;15.50;;;14.90;99.90;;;;;;5012038;28;20218;-79
2023/10/20 04:59:05;;;;;;;20.60;16.13;;;14.90;99.90;;;;;;5021537;28;20237;-78
2023/10/20 05:01:44;;;;;;;20.90;16.85;;;14.80;99.90;;;;;;5010544;28;20199;-79
2023/10/20 05:04:21;;;;;;;20.75;16.15;;;14.80;99.90;;;;;;5003321;28;20301;-79
2023/10/20 05:06:58;;;;;;;19.88;15.43;;;14.80;99.90;;;;;;5012241;28;20202;-79
2023/10/20 05:09:26;;;;;;;18.60;14.98;;;14.80;99.90;;;;;;5003603;28;20234;-79
2023/10/20 05:11:54;;;;;;;18.00;15.20;;;14.90;99.90;;;;;;5004109;28;20327;-79
2023/10/20 05:14:21;;;;;;;19.77;16.02;;;14.80;99.90;;;;;;5025868;28;20674;-79
2023/10/20 05:16:49;;;;;;;18.45;14.95;;;14.80;99.90;;;;;;5023225;28;20203;-79
2023/10/20 05:19:18;;;;;;;16.95;14.15;;;14.80;99.90;;;;;;5012418;28;20226;-79
2023/10/20 05:21:45;;;;;;;20.40;14.85;;;14.80;99.90;;;;;;5007105;28;20210;-79
2023/10/20 05:24:13;;;;;;;20.05;15.43;;;14.80;99.90;;;;;;5009554;28;20202;-79
2023/10/20 05:26:40;;;;;;;20.00;14.77;;;14.80;99.90;;;;;;5014206;28;20675;-79
2023/10/20 05:29:08;;;;;;;17.48;13.98;;;14.80;99.90;;;;;;5013136;28;20238;-79
2023/10/20 05:31:36;;;;;;;19.30;14.90;;;14.80;99.90;;;;;;5009834;28;20210;-79
2023/10/20 05:34:04;;;;;;;17.40;13.80;;;14.80;99.90;;;;;;5009262;28;20218;-79
2023/10/20 05:36:32;;;;;;;20.63;15.38;;;14.70;99.90;;;;;;5007528;28;20198;-80
2023/10/20 05:39:00;;;;;;;20.27;14.55;;;14.70;99.90;;;;;;5004901;28;20705;-79
2023/10/20 05:41:29;;;;;;;16.08;13.32;;;14.70;99.90;;;;;;5015160;28;20209;-79
2023/10/20 05:43:57;;;;;;;17.70;13.15;;;14.70;99.90;;;;;;5002252;28;20288;-79
2023/10/20 05:46:26;;;;;;;20.70;15.20;;;14.70;99.90;;;;;;5012172;28;20202;-79
2023/10/20 05:49:16;;;;;;;17.83;13.95;;;14.70;99.90;;;;;;5017646;28;20223;-80
2023/10/20 05:51:57;;;;;;;16.23;13.93;;;14.70;99.90;;;;;;5011304;28;20207;-80
2023/10/20 05:54:25;;;;;;;18.33;15.13;;;14.80;99.90;;;;;;5020476;28;20213;-81
2023/10/20 05:56:54;;;;;;;16.70;13.50;;;14.70;99.90;;;;;;5010355;28;20732;-81
2023/10/20 05:59:23;;;;;;;16.27;14.43;;;14.70;99.90;;;;;;5026360;28;20254;-81
2023/10/20 06:01:50;;;;;;;17.90;14.43;;;14.70;99.90;;;;;;5019995;28;20222;-81
2023/10/20 06:04:20;;;;;;;18.58;14.27;;;14.70;99.90;;;;;;5023266;28;20214;-81
2023/10/20 06:06:51;;;;;;;18.17;14.00;;;14.80;99.90;;;;;;5020147;28;20830;-81
2023/10/20 06:09:19;;;;;;;16.25;13.65;;;14.80;99.90;;;;;;5027549;28;20222;-82
2023/10/20 06:11:47;;;;;;;16.45;14.10;;;14.80;99.90;;;;;;5022040;28;20223;-82
2023/10/20 06:14:14;;;;;;;19.00;14.82;;;14.80;99.90;;;;;;5020030;28;20211;-81
2023/10/20 06:16:42;;;;;;;19.23;15.02;;;14.70;99.90;;;;;;5021493;28;20211;-81
2023/10/20 06:19:10;;;;;;;16.17;13.90;;;14.70;99.90;;;;;;5016781;28;20249;-81
2023/10/20 06:21:38;;;;;;;16.08;13.65;;;14.70;99.90;;;;;;5028829;28;20230;-80
2023/10/20 06:24:06;;;;;;;18.98;14.50;;;14.70;99.90;;;;;;5011924;28;20211;-80
2023/10/20 06:26:35;;;;;;;18.73;14.57;;;14.80;99.90;;;;;;5006318;28;20204;-80
2023/10/20 06:29:17;;;;;;;19.60;14.85;;;14.70;99.90;;;;;;5026225;28;20222;-80
2023/10/20 06:32:09;;;;;;;17.95;15.00;;;14.70;99.90;;;;;;5013251;28;20219;-81
2023/10/20 06:34:46;;;;;;;20.38;14.88;;;14.80;99.90;;;;;;5023595;28;20199;-81
2023/10/20 06:37:19;;;;;;;19.30;14.95;;;14.70;99.90;;;;;;5009340;28;20211;-81
2023/10/20 06:39:48;;;;;;;19.40;15.27;;;14.70;99.90;;;;;;5034286;28;20227;-82
2023/10/20 06:42:19;;;;;;;17.33;13.55;;;14.60;99.90;;;;;;5016123;28;20218;-81
2023/10/20 06:44:49;;;;;;;20.05;14.93;;;14.60;99.90;;;;;;5012134;28;20211;-82
2023/10/20 06:47:21;;;;;;;15.93;13.82;;;14.60;99.90;;;;;;5015758;28;20226;-81
2023/10/20 06:49:49;;;;;;;17.55;14.23;;;14.60;99.90;;;;;;5022585;28;20880;-81
2023/10/20 06:52:23;;;;;;;19.45;14.07;;;14.50;99.90;;;;;;5017523;28;20315;-81
2023/10/20 06:54:51;;;;;;;17.33;13.35;;;14.50;99.90;;;;;;5014036;28;20222;-82
2023/10/20 06:57:20;;;;;;;15.50;12.70;;;14.40;99.90;;;;;;5023714;28;20203;-80
2023/10/20 06:59:50;;;;;;;15.15;12.95;;;14.40;99.90;;;;;;5016793;28;20223;-80
2023/10/20 07:02:18;;;;;;;15.52;12.98;;;14.40;99.90;;;;;;5020771;28;20210;-80
2023/10/20 07:04:45;;;;;;;15.07;12.43;;;14.40;99.90;;;;;;5017474;28;20203;-80
2023/10/20 07:07:14;;;;;;;16.33;11.93;;;14.50;99.90;;;;;;5023544;28;20698;-81
2023/10/20 07:09:41;;;;;;;14.82;12.57;;;14.30;99.90;;;;;;5019560;28;20233;-80
2023/10/20 07:12:09;;;;;;;14.80;11.88;;;14.30;99.90;;;;;;5016462;28;20235;-81
2023/10/20 07:14:39;;;;;;;13.23;10.85;;;14.30;99.90;;;;;;5021627;28;20210;-81
2023/10/20 07:17:06;;;;;;;15.43;11.25;;;14.30;99.90;;;;;;5014466;28;20209;-80
2023/10/20 07:19:34;;;;;;;11.55;10.02;;;14.30;99.90;;;;;;5016349;28;20228;-81
2023/10/20 07:22:03;;;;;;;13.93;10.73;;;14.30;99.90;;;;;;5019663;28;20199;-81
2023/10/20 07:24:31;;;;;;;13.75;11.02;;;14.40;99.90;;;;;;5016664;28;20218;-80
2023/10/20 07:26:58;;;;;;;12.18;10.25;;;14.40;99.90;;;;;;5031564;28;20203;-82
2023/10/20 07:29:26;;;;;;;11.35;10.23;;;14.40;99.90;;;;;;5011929;28;20227;-79
2023/10/20 07:31:55;;;;;;;9.98;8.77;;;14.40;99.90;;;;;;5041940;28;20207;-81
2023/10/20 07:34:22;;;;;;;11.05;8.85;;;14.40;99.90;;;;;;5027239;28;20211;-80
2023/10/20 07:36:51;;;;;;;10.18;8.13;;;14.30;99.90;;;;;;5031423;28;20206;-80
2023/10/20 07:39:18;;;;;;;8.98;7.72;;;14.30;99.90;;;;;;5011011;28;20227;-80
2023/10/20 07:41:47;;;;;;;8.75;7.07;;;14.30;99.90;;;;;;5014221;28;20206;-82
2023/10/20 07:44:20;;;;;;;8.38;7.47;;;14.20;99.90;;;;;;4934415;28;20659;-82
2023/10/20 07:46:48;;;;;;;8.38;6.82;;;14.20;99.90;;;;;;4993476;28;20203;-84
2023/10/20 07:49:17;;;;;;;7.38;6.47;;;14.20;99.90;;;;;;5011224;28;20250;-84
2023/10/20 07:51:44;;;;;;;8.10;6.97;;;14.20;99.90;;;;;;5012610;28;20199;-81
2023/10/20 07:54:12;;;;;;;7.38;6.32;;;14.20;99.90;;;;;;5016769;28;20222;-81
2023/10/20 07:56:40;;;;;;;8.98;7.00;;;14.20;99.90;;;;;;5012220;28;20199;-80
2023/10/20 07:59:07;;;;;;;6.95;6.25;;;14.20;99.90;;;;;;5011059;28;20224;-81
2023/10/20 08:01:35;;;;;;;7.53;6.40;;;14.20;99.90;;;;;;5015930;28;20215;-79
2023/10/20 08:04:27;;;;;;;6.95;6.20;;;14.20;99.90;;;;;;5019163;28;20195;-80
2023/10/20 08:06:58;;;;;;;8.27;6.30;;;14.30;99.90;;;;;;5019264;28;20606;-83
2023/10/20 08:09:27;;;;;;;6.88;6.15;;;14.30;99.90;;;;;;5009555;28;20223;-82
2023/10/20 08:11:55;;;;;;;7.50;6.10;;;14.30;99.90;;;;;;5017823;28;20203;-83
2023/10/20 08:14:22;;;;;;;7.22;5.53;;;14.30;99.90;;;;;;5009081;28;20215;-83
2023/10/20 08:16:50;;;;;;;7.38;6.07;;;14.20;99.90;;;;;;5014749;28;20200;-80
2023/10/20 08:19:17;;;;;;;7.05;5.55;;;14.30;99.90;;;;;;5006809;28;20237;-82
2023/10/20 08:21:46;;;;;;;7.22;6.35;;;14.30;99.90;;;;;;5013823;28;20218;-80
2023/10/20 08:24:14;;;;;;;5.93;5.32;;;14.20;99.90;;;;;;5024096;28;20203;-81
2023/10/20 08:26:42;;;;;;;6.70;6.10;;;14.10;99.90;;;;;;5013742;28;20199;-83
2023/10/20 08:29:11;;;;;;;6.63;5.93;;;14.20;99.90;;;;;;5010304;28;20234;-84
2023/10/20 08:31:39;;;;;;;5.97;5.30;;;14.30;99.90;;;;;;5017566;28;20210;-85
2023/10/20 08:34:07;;;;;;;6.30;5.70;;;14.10;99.90;;;;;;5012080;28;20223;-85
2023/10/20 08:36:34;;;;;;;5.95;4.70;;;14.10;99.90;;;;;;5008018;28;20210;-85
2023/10/20 08:39:13;;;;;;;5.65;5.07;;;14.20;99.90;;;;;;5012409;28;20225;-88
2023/10/20 08:41:42;;;;;;;7.97;5.10;;;14.10;99.90;;;;;;5023874;28;20214;-83
2023/10/20 08:44:11;;;;;;;7.22;4.88;;;14.10;99.90;;;;;;5011728;28;20638;-83
2023/10/20 08:46:40;;;;;;;4.75;4.25;;;14.10;99.90;;;;;;5017306;28;20212;-83
2023/10/20 08:49:09;;;;;;;5.25;4.75;;;14.00;99.90;;;;;;5018239;28;20265;-85
2023/10/20 08:51:38;;;;;;;5.18;4.57;;;14.10;99.90;;;;;;5028787;28;20211;-84
2023/10/20 08:54:09;;;;;;;4.32;3.92;;;13.90;99.90;;;;;;5017855;28;20227;-84
2023/10/20 08:56:37;;;;;;;4.72;4.25;;;14.00;99.90;;;;;;5023939;28;20191;-84
2023/10/20 08:59:12;;;;;;;4.30;3.90;;;14.00;99.90;;;;;;5007394;28;20707;-83
2023/10/20 09:01:40;;;;;;;4.65;4.22;;;14.00;99.90;;;;;;5016442;28;20210;-87
2023/10/20 09:04:07;;;;;;;4.03;3.72;;;14.00;99.90;;;;;;5011986;28;20195;-83
2023/10/20 09:06:35;;;;;;;4.15;3.75;;;14.00;99.90;;;;;;5030858;28;20205;-83
2023/10/20 09:09:05;;;;;;;4.88;4.07;;;14.00;99.90;;;;;;5013899;28;20218;-83
2023/10/20 09:11:34;;;;;;;4.00;3.60;;;14.00;99.90;;;;;;5018386;28;20207;-82
2023/10/20 09:14:02;;;;;;;4.20;3.80;;;14.00;99.90;;;;;;5031272;28;20222;-82
2023/10/20 09:16:30;;;;;;;3.97;3.40;;;13.90;99.90;;;;;;5004863;28;20215;-82
2023/10/20 09:18:57;;;;;;;3.50;3.15;;;13.90;99.90;;;;;;5007063;28;20232;-84
2023/10/20 09:21:28;;;;;;;4.20;3.80;;;13.90;99.90;;;;;;5008113;28;20672;-82
2023/10/20 09:23:59;;;;;;;3.90;3.50;;;14.00;99.90;;;;;;5010113;28;20210;-84
2023/10/20 09:26:31;;;;;;;4.20;3.70;;;14.00;99.90;;;;;;5009644;28;20207;-81
2023/10/20 09:29:00;;;;;;;3.67;3.38;;;14.00;99.90;;;;;;5025050;28;20315;-80
2023/10/20 09:31:29;;;;;;;3.53;3.22;;;14.00;99.90;;;;;;5054400;28;20209;-84
2023/10/20 09:33:56;;;;;;;3.88;3.42;;;13.90;99.90;;;;;;5017999;28;20218;-82
2023/10/20 09:36:33;;;;;;;3.85;3.42;;;13.90;99.90;;;;;;5020486;28;20206;-81
2023/10/20 09:39:12;;;;;;;3.67;3.38;;;13.80;99.90;;;;;;5028507;28;20230;-80
2023/10/20 09:41:45;;;;;;;4.65;3.85;;;13.80;99.90;;;;;;5021998;28;20210;-81
2023/10/20 09:44:34;;;;;;;3.60;3.30;;;13.60;99.90;;;;;;5011487;28;20187;-80
2023/10/20 09:47:12;;;;;;;3.60;3.30;;;13.70;99.90;;;;;;5021479;28;20199;-83
2023/10/20 09:49:43;;;;;;;5.65;3.10;;;13.70;99.90;;;;;;5021281;28;20225;-84
2023/10/20 09:52:11;;;;;;;2.80;2.60;;;13.70;99.90;;;;;;5009967;28;20206;-84
2023/10/20 09:54:39;;;;;;;3.38;3.05;;;13.80;99.90;;;;;;5019739;28;20213;-83
2023/10/20 09:57:07;;;;;;;3.70;3.10;;;13.80;99.90;;;;;;5017061;28;20210;-82
2023/10/20 09:59:39;;;;;;;3.22;3.03;;;13.60;99.90;;;;;;5015361;28;20234;-83
2023/10/20 10:02:07;;;;;;;4.00;2.70;;;13.60;99.90;;;;;;5032837;28;20672;-85
2023/10/20 10:04:37;;;;;;;4.00;3.60;;;13.70;99.90;;;;;;5024306;28;20198;-82
2023/10/20 10:07:05;;;;;;;3.30;3.10;;;13.70;99.90;;;;;;5020400;28;20215;-81
2023/10/20 10:09:37;;;;;;;3.65;3.35;;;13.50;99.90;;;;;;5036555;28;20219;-81
2023/10/20 10:12:09;;;;;;;3.80;3.50;;;13.70;99.90;;;;;;5022510;28;20207;-81
2023/10/20 10:14:38;;;;;;;3.30;3.00;;;13.70;99.90;;;;;;5010927;28;20574;-81
2023/10/20 10:17:09;;;;;;;3.80;3.50;;;13.60;99.90;;;;;;5024967;28;20206;-81
2023/10/20 10:20:01;;;;;;;3.30;3.00;;;13.60;99.90;;;;;;5029798;28;20215;-81
2023/10/20 10:22:30;;;;;;;3.17;2.88;;;13.70;99.90;;;;;;5030134;28;20668;-81
2023/10/20 10:25:00;;;;;;;3.83;3.20;;;13.60;99.90;;;;;;5018318;28;20191;-80
2023/10/20 10:27:29;;;;;;;3.60;3.33;;;13.60;99.90;;;;;;5018314;28;20203;-81
2023/10/20 10:30:00;;;;;;;3.15;2.85;;;13.70;99.90;;;;;;5051134;28;20194;-81
2023/10/20 10:32:31;;;;;;;3.60;3.30;;;13.70;99.90;;;;;;5020940;28;20195;-81
2023/10/20 10:34:59;;;;;;;3.30;3.00;;;13.80;99.90;;;;;;5018003;28;20218;-81
2023/10/20 10:37:29;;;;;;;3.25;2.88;;;13.60;99.90;;;;;;5019456;28;20196;-81
2023/10/20 10:40:07;;;;;;;4.57;3.63;;;13.70;99.90;;;;;;5012789;28;20218;-80
2023/10/20 10:42:41;;;;;;;5.05;3.28;;;13.90;99.90;;;;;;5023425;28;20204;-80
2023/10/20 10:45:22;;;;;;;4.13;3.08;;;14.10;99.90;;;;;;5017823;28;20682;-80
2023/10/20 10:47:51;;;;;;;3.17;2.75;;;13.90;99.90;;;;;;5017529;28;20223;-80
2023/10/20 10:50:20;;;;;;;4.55;3.50;;;13.90;99.90;;;;;;5016313;28;20202;-80
2023/10/20 10:53:19;;;;;;;3.17;2.97;;;13.90;99.90;;;;;;5022373;28;20229;-80
2023/10/20 10:55:46;;;;;;;3.10;2.83;;;13.90;99.90;;;;;;5018800;28;20219;-81
2023/10/20 10:59:04;;;;;;;3.50;3.22;;;13.70;99.90;;;;;;5018851;28;20231;-80
2023/10/20 11:01:33;;;;;;;3.10;2.80;;;13.70;99.90;;;;;;5010163;28;20677;-80
2023/10/20 11:04:01;;;;;;;3.42;3.13;;;13.70;99.90;;;;;;5012138;28;20191;-82
2023/10/20 11:06:32;;;;;;;3.15;2.80;;;13.80;99.90;;;;;;5016490;28;20199;-82
2023/10/20 11:08:59;;;;;;;3.33;3.00;;;13.70;99.90;;;;;;5023745;28;20222;-81
2023/10/20 11:11:27;;;;;;;3.08;2.78;;;13.70;99.90;;;;;;5013115;28;20212;-82
2023/10/20 11:13:57;;;;;;;2.60;2.40;;;13.80;99.90;;;;;;5016435;28;20203;-81
2023/10/20 11:16:24;;;;;;;3.05;2.85;;;13.80;99.90;;;;;;5019434;28;20203;-81
2023/10/20 11:18:53;;;;;;;3.15;2.47;;;13.70;99.90;;;;;;5012853;28;20227;-81
2023/10/20 11:21:20;;;;;;;3.30;3.00;;;13.60;99.90;;;;;;5017356;28;20658;-81
2023/10/20 11:23:50;;;;;;;2.58;2.38;;;13.50;99.90;;;;;;5013221;28;20207;-78
2023/10/20 11:26:18;;;;;;;3.20;2.90;;;13.60;99.90;;;;;;5016019;28;20221;-82
2023/10/20 11:28:46;;;;;;;3.22;2.65;;;13.70;99.90;;;;;;5017539;28;20226;-81
2023/10/20 11:31:13;;;;;;;2.58;2.38;;;13.60;99.90;;;;;;5014843;28;20206;-81
2023/10/20 11:33:41;;;;;;;2.90;2.70;;;13.50;99.90;;;;;;5047887;28;20199;-81
2023/10/20 11:36:10;;;;;;;2.67;2.47;;;13.60;99.90;;;;;;5017137;28;20215;-81
2023/10/20 11:38:37;;;;;;;2.90;2.70;;;13.50;99.90;;;;;;5012702;28;20230;-81
2023/10/20 11:41:05;;;;;;;3.25;2.30;;;13.70;99.90;;;;;;5020048;28;20207;-81
2023/10/20 11:43:33;;;;;;;2.42;2.22;;;13.70;99.90;;;;;;5055152;28;20199;-82
2023/10/20 11:46:00;;;;;;;3.08;2.35;;;13.70;99.90;;;;;;5029355;28;20207;-79
2023/10/20 11:48:28;;;;;;;4.00;2.70;;;13.80;99.90;;;;;;5049237;28;20222;-81
2023/10/20 11:50:55;;;;;;;2.83;2.63;;;13.80;99.90;;;;;;5035770;28;20211;-80
2023/10/20 11:53:24;;;;;;;2.97;2.67;;;13.90;99.90;;;;;;5022799;28;20191;-81
2023/10/20 11:55:52;;;;;;;3.00;2.78;;;13.90;99.90;;;;;;5023242;28;20221;-81
2023/10/20 11:58:19;;;;;;;3.67;3.00;;;13.80;99.90;;;;;;5051549;28;20227;-81
2023/10/20 12:00:47;;;;;;;3.35;3.05;;;13.80;99.90;;;;;;5016641;28;20208;-81
2023/10/20 12:03:15;;;;;;;3.45;3.25;;;13.90;99.90;;;;;;5018872;28;20199;-81
2023/10/20 12:05:43;;;;;;;3.88;3.47;;;13.80;99.90;;;;;;5033127;28;20190;-81
2023/10/20 12:08:10;;;;;;;3.83;3.53;;;13.80;99.90;;;;;;5021573;28;20226;-81
2023/10/20 12:10:39;;;;;;;3.30;3.10;;;13.70;99.90;;;;;;5036528;28;20210;-81
2023/10/20 12:13:06;;;;;;;3.58;3.28;;;13.70;99.90;;;;;;5049588;28;20191;-81
2023/10/20 12:15:45;;;;;;;3.30;3.05;;;13.70;99.90;;;;;;5014800;28;20211;-81
2023/10/20 12:18:12;;;;;;;3.00;2.80;;;13.60;99.90;;;;;;5025195;28;20223;-81
2023/10/20 12:20:41;;;;;;;3.45;3.03;;;13.70;99.90;;;;;;5034465;28;20183;-81
2023/10/20 12:23:09;;;;;;;3.20;2.90;;;13.60;99.90;;;;;;5013898;28;20203;-81
2023/10/20 12:25:39;;;;;;;3.10;2.80;;;13.70;99.90;;;;;;5022896;28;20202;-81
2023/10/20 12:28:07;;;;;;;3.50;3.20;;;13.60;99.90;;;;;;5019520;28;20218;-81
2023/10/20 12:30:35;;;;;;;2.97;2.78;;;13.50;99.90;;;;;;5042317;28;20191;-81
2023/10/20 12:33:08;;;;;;;2.75;2.55;;;13.60;99.90;;;;;;5014585;28;20195;-82
2023/10/20 12:35:35;;;;;;;3.05;2.85;;;13.60;99.90;;;;;;5011654;28;20219;-81
2023/10/20 12:38:03;;;;;;;4.68;3.08;;;13.60;99.90;;;;;;5015813;28;20569;-82
2023/10/20 12:40:31;;;;;;;4.15;3.75;;;13.60;99.90;;;;;;5019248;28;20210;-81
2023/10/20 12:42:59;;;;;;;3.55;3.30;;;13.60;99.90;;;;;;5030675;28;20227;-81
2023/10/20 12:45:28;;;;;;;4.03;3.60;;;13.60;99.90;;;;;;5021571;28;20190;-81
2023/10/20 12:47:55;;;;;;;4.35;3.60;;;13.60;99.90;;;;;;5016367;28;20222;-80
2023/10/20 12:50:23;;;;;;;3.92;3.53;;;13.60;99.90;;;;;;5011238;28;20661;-81
2023/10/20 12:52:56;;;;;;;4.43;4.07;;;13.60;99.90;;;;;;5015786;28;20287;-81
2023/10/20 12:55:24;;;;;;;3.95;3.65;;;13.60;99.90;;;;;;5057948;28;20219;-81
2023/10/20 12:57:52;;;;;;;4.00;3.70;;;13.50;99.90;;;;;;5014482;28;20715;-82
2023/10/20 13:00:21;;;;;;;3.95;3.63;;;13.40;99.90;;;;;;5007714;28;20195;-81
2023/10/20 13:02:50;;;;;;;3.90;3.45;;;13.40;99.90;;;;;;5016238;28;20200;-80
2023/10/20 13:05:17;;;;;;;4.47;4.07;;;13.40;99.90;;;;;;5011390;28;20199;-82
2023/10/20 13:07:45;;;;;;;4.35;3.95;;;13.50;99.90;;;;;;5020153;28;20569;-81
2023/10/20 13:10:13;;;;;;;4.72;4.32;;;13.50;99.90;;;;;;5023886;28;20230;-81